createdAt,value
2022-08-11T00:00:06.806Z,2.70
2022-08-11T00:02:35.342Z,3.70
2022-08-11T00:05:15.050Z,2.87
2022-08-11T00:10:29.671Z,3.00
2022-08-11T00:20:50.100Z,3.30
2022-08-11T00:23:19.211Z,3.23
2022-08-11T00:25:51.804Z,3.07
2022-08-11T00:28:27.072Z,3.30
2022-08-11T00:30:55.561Z,2.57
2022-08-11T00:33:41.390Z,3.97
2022-08-11T00:36:14.900Z,2.60
2022-08-11T00:38:43.441Z,2.20
2022-08-11T00:41:32.290Z,3.90
2022-08-11T00:44:30.020Z,6.70
2022-08-11T00:47:03.481Z,3.23
2022-08-11T00:49:34.640Z,4.07
2022-08-11T00:52:44.155Z,2.67
2022-08-11T00:55:55.537Z,3.43
2022-08-11T00:58:59.215Z,3.33
2022-08-11T01:02:18.490Z,3.50
2022-08-11T01:05:13.991Z,2.93
2022-08-11T01:08:19.736Z,5.90
2022-08-11T01:11:20.100Z,3.13
2022-08-11T01:14:05.425Z,3.00
2022-08-11T01:16:50.893Z,8.03
2022-08-11T01:20:44.553Z,3.03
2022-08-11T01:22:58.939Z,3.47
2022-08-11T01:25:56.686Z,3.57
2022-08-11T01:28:49.014Z,5.10
2022-08-11T01:31:24.324Z,3.63
2022-08-11T01:33:59.879Z,3.40
2022-08-11T01:36:58.889Z,3.10
2022-08-11T01:40:08.302Z,3.93
2022-08-11T01:46:07.375Z,4.60
2022-08-11T01:48:49.258Z,3.47
2022-08-11T01:51:50.175Z,5.63
2022-08-11T01:54:28.205Z,3.93
2022-08-11T01:57:16.543Z,2.97
2022-08-11T01:59:54.387Z,2.87
2022-08-11T02:02:48.025Z,3.00
2022-08-11T02:08:33.866Z,3.53
2022-08-11T02:14:24.475Z,3.97
2022-08-11T02:17:14.181Z,3.67
2022-08-11T02:20:11.112Z,3.20
2022-08-11T02:25:57.594Z,3.70
2022-08-11T02:28:46.581Z,5.07
2022-08-11T02:32:24.445Z,4.33
2022-08-11T02:35:00.464Z,5.37
2022-08-11T02:37:33.436Z,4.63
2022-08-11T02:40:06.884Z,7.87
2022-08-11T02:42:42.623Z,3.47
2022-08-11T02:45:12.043Z,3.47
2022-08-11T02:48:16.575Z,4.87
2022-08-11T02:50:56.610Z,3.30
2022-08-11T02:53:50.957Z,3.13
2022-08-11T02:56:44.476Z,4.20
2022-08-11T02:59:46.899Z,3.93
2022-08-11T03:02:38.126Z,3.80
2022-08-11T03:05:20.944Z,4.13
2022-08-11T03:08:14.726Z,3.30
2022-08-11T03:11:24.884Z,4.20
2022-08-11T03:14:40.228Z,4.27
2022-08-11T03:17:23.047Z,5.00
2022-08-11T03:20:15.395Z,5.20
2022-08-11T03:23:02.466Z,3.63
2022-08-11T03:25:58.692Z,4.07
2022-08-11T03:34:09.054Z,4.77
2022-08-11T03:37:17.291Z,4.30
2022-08-11T03:40:52.518Z,4.00
2022-08-11T03:43:50.132Z,3.50
2022-08-11T03:47:15.985Z,3.07
2022-08-11T03:50:03.983Z,5.30
2022-08-11T03:52:42.160Z,3.87
2022-08-11T03:55:39.519Z,3.73
2022-08-11T03:58:46.176Z,3.80
2022-08-11T04:04:35.540Z,6.40
2022-08-11T04:07:39.596Z,4.90
2022-08-11T04:10:29.599Z,8.10
2022-08-11T04:13:33.623Z,6.43
2022-08-11T04:16:19.992Z,5.37
2022-08-11T04:19:01.296Z,5.63
2022-08-11T04:25:06.192Z,4.00
2022-08-11T04:27:47.925Z,3.70
2022-08-11T04:30:23.096Z,4.30
2022-08-11T04:32:53.395Z,5.17
2022-08-11T04:35:28.390Z,4.03
2022-08-11T04:37:54.932Z,4.93
2022-08-11T04:40:55.951Z,4.40
2022-08-11T04:44:06.422Z,4.37
2022-08-11T04:46:30.975Z,4.57
2022-08-11T04:49:50.563Z,3.57
2022-08-11T04:52:49.507Z,4.53
2022-08-11T04:55:56.324Z,6.73
2022-08-11T04:59:06.480Z,3.10
2022-08-11T05:02:16.953Z,4.70
2022-08-11T05:08:24.063Z,4.37
2022-08-11T05:11:12.767Z,3.87
2022-08-11T05:14:08.740Z,4.50
2022-08-11T05:17:16.598Z,3.17
2022-08-11T05:20:06.127Z,4.27
2022-08-11T05:22:53.116Z,3.57
2022-08-11T05:26:46.285Z,2.97
2022-08-11T05:29:20.099Z,4.90
2022-08-11T05:32:14.386Z,3.23
2022-08-11T05:34:54.295Z,10.43
2022-08-11T05:37:30.356Z,3.53
2022-08-11T05:40:29.662Z,3.37
2022-08-11T05:43:18.552Z,3.80
2022-08-11T05:46:14.631Z,3.43
2022-08-11T05:49:01.387Z,5.90
2022-08-11T05:52:05.804Z,3.07
2022-08-11T05:54:59.356Z,5.73
2022-08-11T05:57:49.795Z,5.70
2022-08-11T06:00:19.289Z,5.53
2022-08-11T06:02:55.773Z,2.97
2022-08-11T06:05:23.226Z,3.87
2022-08-11T06:07:55.552Z,3.40
2022-08-11T06:10:34.399Z,2.93
2022-08-11T06:13:02.253Z,2.97
2022-08-11T06:15:31.571Z,3.10
2022-08-11T06:18:01.203Z,3.20
2022-08-11T06:23:07.226Z,3.23
2022-08-11T06:28:08.743Z,3.40
2022-08-11T06:30:43.244Z,2.50
2022-08-11T06:33:15.772Z,4.10
2022-08-11T06:36:04.444Z,3.40
2022-08-11T06:38:40.019Z,3.80
2022-08-11T06:41:44.193Z,5.17
2022-08-11T06:44:13.744Z,2.70
2022-08-11T06:52:44.019Z,2.80
2022-08-11T06:55:57.979Z,3.90
2022-08-11T06:58:48.082Z,3.30
2022-08-11T07:01:19.967Z,5.33
2022-08-11T07:03:50.948Z,4.40
2022-08-11T07:06:50.479Z,4.37
2022-08-11T07:10:07.970Z,4.00
2022-08-11T07:12:59.559Z,4.73
2022-08-11T07:16:10.694Z,4.60
2022-08-11T07:18:52.800Z,3.23
2022-08-11T07:22:01.972Z,5.57
2022-08-11T07:24:59.297Z,3.33
2022-08-11T07:27:53.671Z,3.43
2022-08-11T07:30:20.579Z,2.80
2022-08-11T07:32:51.868Z,3.77
2022-08-11T07:35:33.770Z,7.63
2022-08-11T07:38:06.929Z,4.57
2022-08-11T07:40:36.677Z,2.63
2022-08-11T07:43:04.768Z,4.97
2022-08-11T07:45:50.860Z,3.80
2022-08-11T07:48:37.170Z,3.00
2022-08-11T07:53:58.813Z,4.43
2022-08-11T07:56:54.483Z,8.43
2022-08-11T08:00:04.368Z,4.77
2022-08-11T08:02:48.530Z,3.80
2022-08-11T08:05:36.198Z,4.10
2022-08-11T08:08:21.928Z,3.03
2022-08-11T08:11:08.770Z,4.90
2022-08-11T08:13:55.288Z,4.10
2022-08-11T08:16:40.774Z,2.70
2022-08-11T08:19:07.710Z,4.20
2022-08-11T08:21:34.457Z,3.27
2022-08-11T08:24:02.990Z,3.37
2022-08-11T08:26:51.777Z,3.07
2022-08-11T08:29:38.539Z,3.07
2022-08-11T08:34:41.057Z,4.33
2022-08-11T08:39:39.933Z,2.70
2022-08-11T08:42:11.675Z,3.77
2022-08-11T08:44:45.680Z,3.37
2022-08-11T08:47:38.747Z,3.53
2022-08-11T08:50:05.499Z,3.07
2022-08-11T08:52:43.649Z,4.20
2022-08-11T08:55:17.043Z,5.70
2022-08-11T08:57:45.136Z,3.50
2022-08-11T09:00:20.726Z,4.90
2022-08-11T09:02:50.007Z,5.37
2022-08-11T09:05:19.152Z,4.50
2022-08-11T09:07:50.985Z,3.03
2022-08-11T09:10:19.812Z,3.90
2022-08-11T09:15:19.556Z,2.93
2022-08-11T09:17:49.195Z,3.97
2022-08-11T09:20:24.551Z,4.50
2022-08-11T09:26:21.172Z,3.50
2022-08-11T09:28:49.635Z,3.37
2022-08-11T09:31:16.936Z,2.90
2022-08-11T09:33:44.609Z,3.43
2022-08-11T09:36:32.722Z,3.60
2022-08-11T09:39:19.327Z,3.17
2022-08-11T09:42:00.441Z,2.90
2022-08-11T09:44:48.974Z,7.67
2022-08-11T09:47:28.702Z,5.30
2022-08-11T09:50:00.365Z,3.30
2022-08-11T09:52:29.386Z,3.77
2022-08-11T09:54:56.340Z,3.37
2022-08-11T09:57:43.582Z,3.03
2022-08-11T10:00:14.108Z,3.10
2022-08-11T10:02:45.016Z,2.70
2022-08-11T10:05:35.557Z,3.37
2022-08-11T10:08:03.602Z,2.80
2022-08-11T10:14:30.193Z,2.40
2022-08-11T10:16:15.268Z,2.20
2022-08-11T10:18:52.817Z,3.20
2022-08-11T10:21:29.072Z,2.90
2022-08-11T10:24:17.807Z,3.20
2022-08-11T10:26:55.622Z,2.67
2022-08-11T10:30:09.016Z,3.30
2022-08-11T10:32:58.622Z,2.40
2022-08-11T10:35:29.461Z,2.40
2022-08-11T10:38:08.848Z,2.83
2022-08-11T10:40:39.600Z,3.10
2022-08-11T10:43:10.303Z,2.50
2022-08-11T10:45:57.590Z,3.13
2022-08-11T10:48:26.476Z,2.80
2022-08-11T10:51:12.955Z,2.40
2022-08-11T10:54:06.916Z,2.67
2022-08-11T10:56:57.797Z,3.00
2022-08-11T10:59:29.911Z,3.30
2022-08-11T11:01:58.992Z,2.50
2022-08-11T11:04:52.559Z,2.53
2022-08-11T11:07:24.783Z,2.83
2022-08-11T11:09:57.176Z,2.67
2022-08-11T11:12:57.173Z,3.33
2022-08-11T11:15:45.272Z,2.20
2022-08-11T11:18:38.572Z,2.53
2022-08-11T11:21:15.518Z,2.57
2022-08-11T11:23:53.388Z,2.70
2022-08-11T11:26:38.828Z,2.70
2022-08-11T11:32:09.409Z,2.47
2022-08-11T11:34:53.724Z,2.73
2022-08-11T11:37:23.010Z,2.63
2022-08-11T11:39:50.191Z,2.50
2022-08-11T11:42:18.467Z,2.30
2022-08-11T11:44:46.788Z,3.10
2022-08-11T11:47:15.468Z,2.80
2022-08-11T11:49:44.014Z,2.33
2022-08-11T11:52:18.196Z,3.10
2022-08-11T11:57:38.071Z,2.20
2022-08-11T12:02:58.371Z,2.40
2022-08-11T12:05:26.566Z,2.97
2022-08-11T12:08:14.342Z,2.50
2022-08-11T12:10:50.359Z,2.33
2022-08-11T12:13:37.570Z,2.83
2022-08-11T12:16:34.932Z,2.33
2022-08-11T12:18:55.012Z,1.97
2022-08-11T12:21:22.680Z,2.67
2022-08-11T12:24:09.168Z,2.40
2022-08-11T12:26:39.696Z,2.43
2022-08-11T12:29:10.454Z,2.23
2022-08-11T12:31:39.197Z,2.40
2022-08-11T12:34:14.675Z,2.17
2022-08-11T12:36:45.498Z,2.30
2022-08-11T12:40:15.867Z,2.53
2022-08-11T12:42:53.858Z,2.40
2022-08-11T12:45:29.710Z,2.63
2022-08-11T12:48:59.431Z,2.33
2022-08-11T12:52:11.803Z,2.13
2022-08-11T12:55:00.609Z,2.03
2022-08-11T12:57:55.635Z,2.30
2022-08-11T13:00:42.120Z,2.03
2022-08-11T13:03:29.101Z,2.37
2022-08-11T13:06:02.590Z,1.83
2022-08-11T13:08:31.482Z,2.37
2022-08-11T13:11:19.187Z,2.20
2022-08-11T13:13:55.225Z,2.10
2022-08-11T13:16:30.679Z,2.50
2022-08-11T13:19:00.769Z,2.20
2022-08-11T13:21:29.071Z,2.20
2022-08-11T13:24:01.388Z,2.20
2022-08-11T13:26:48.305Z,2.20
2022-08-11T13:29:24.660Z,2.10
2022-08-11T13:31:53.844Z,2.10
2022-08-11T13:34:22.987Z,2.13
2022-08-11T13:36:53.244Z,2.40
2022-08-11T13:39:25.996Z,2.10
2022-08-11T13:41:57.279Z,2.30
2022-08-11T13:44:29.904Z,2.00
2022-08-11T13:47:01.020Z,2.50
2022-08-11T13:49:28.747Z,2.27
2022-08-11T13:56:55.987Z,1.70
2022-08-11T13:59:28.179Z,2.10
2022-08-11T14:02:22.237Z,2.00
2022-08-11T14:04:57.904Z,2.20
2022-08-11T14:07:29.844Z,1.90
2022-08-11T14:09:59.620Z,2.47
2022-08-11T14:12:54.191Z,2.00
2022-08-11T14:15:24.948Z,1.90
2022-08-11T14:18:03.103Z,2.23
2022-08-11T14:20:51.061Z,1.80
2022-08-11T14:23:19.363Z,2.20
2022-08-11T14:26:04.812Z,2.40
2022-08-11T14:28:39.958Z,2.50
2022-08-11T14:31:09.420Z,2.00
2022-08-11T14:33:58.153Z,2.37
2022-08-11T14:36:26.286Z,1.87
2022-08-11T14:38:53.988Z,2.17
2022-08-11T14:42:11.229Z,2.00
2022-08-11T14:44:47.222Z,2.37
2022-08-11T14:47:24.021Z,2.33
2022-08-11T14:49:58.228Z,2.10
2022-08-11T14:52:38.829Z,2.30
2022-08-11T14:55:25.871Z,2.10
2022-08-11T14:58:04.859Z,2.10
2022-08-11T15:00:34.149Z,2.20
2022-08-11T15:03:12.219Z,1.53
2022-08-11T15:05:58.384Z,2.37
2022-08-11T15:08:52.376Z,1.97
2022-08-11T15:11:40.953Z,2.10
2022-08-11T15:14:09.792Z,2.27
2022-08-11T15:17:02.579Z,2.33
2022-08-11T15:19:40.262Z,2.00
2022-08-11T15:22:28.188Z,1.93
2022-08-11T15:27:42.022Z,2.30
2022-08-11T15:30:33.871Z,2.07
2022-08-11T15:42:27.399Z,1.87
2022-08-11T15:45:17.304Z,2.07
2022-08-11T15:47:58.500Z,2.07
2022-08-11T15:50:35.546Z,1.93
2022-08-11T15:53:33.052Z,1.80
2022-08-11T15:56:01.514Z,1.80
2022-08-11T15:59:10.748Z,2.27
2022-08-11T16:01:59.277Z,1.93
2022-08-11T16:04:30.031Z,1.87
2022-08-11T16:07:12.994Z,1.70
2022-08-11T16:09:51.937Z,1.80
2022-08-11T16:12:26.031Z,2.23
2022-08-11T16:15:20.016Z,1.70
2022-08-11T16:18:03.341Z,2.23
2022-08-11T16:20:31.666Z,1.93
2022-08-11T16:23:03.136Z,1.90
2022-08-11T16:27:03.580Z,1.80
2022-08-11T16:28:21.877Z,1.90
2022-08-11T16:30:49.252Z,1.90
2022-08-11T16:33:48.814Z,1.80
2022-08-11T16:36:23.679Z,1.83
2022-08-11T16:38:51.343Z,1.87
2022-08-11T16:41:39.811Z,2.27
2022-08-11T16:44:37.298Z,1.90
2022-08-11T16:47:12.040Z,1.80
2022-08-11T16:49:52.873Z,2.00
2022-08-11T16:52:20.949Z,2.10
2022-08-11T16:54:48.130Z,1.80
2022-08-11T16:57:44.694Z,2.43
2022-08-11T17:00:15.969Z,2.80
2022-08-11T17:03:08.648Z,2.30
2022-08-11T17:05:57.527Z,1.80
2022-08-11T17:08:57.609Z,1.77
2022-08-11T17:11:47.778Z,2.00
2022-08-11T17:14:35.548Z,2.03
2022-08-11T17:17:07.084Z,1.57
2022-08-11T17:20:39.581Z,1.63
2022-08-11T17:22:45.144Z,1.70
2022-08-11T17:25:12.949Z,1.67
2022-08-11T17:27:42.009Z,1.77
2022-08-11T17:30:11.360Z,1.77
2022-08-11T17:33:01.315Z,1.57
2022-08-11T17:35:38.637Z,1.37
2022-08-11T17:38:16.953Z,1.50
2022-08-11T17:41:05.320Z,1.73
2022-08-11T17:43:51.591Z,1.67
2022-08-11T17:51:54.687Z,1.87
2022-08-11T17:54:42.162Z,1.40
2022-08-11T17:57:28.780Z,1.70
2022-08-11T17:59:57.714Z,1.60
2022-08-11T18:02:59.503Z,1.87
2022-08-11T18:05:29.840Z,1.57
2022-08-11T18:11:06.429Z,1.97
2022-08-11T18:13:55.440Z,1.70
2022-08-11T18:16:41.352Z,1.70
2022-08-11T18:19:27.117Z,1.70
2022-08-11T18:22:23.990Z,1.73
2022-08-11T18:25:15.507Z,1.60
2022-08-11T18:28:03.362Z,1.30
2022-08-11T18:30:54.609Z,1.73
2022-08-11T18:34:07.510Z,1.40
2022-08-11T18:36:59.177Z,1.50
2022-08-11T18:39:54.493Z,1.53
2022-08-11T18:42:42.909Z,1.80
2022-08-11T18:45:35.158Z,1.90
2022-08-11T18:48:37.131Z,1.37
2022-08-11T18:51:30.725Z,1.63
2022-08-11T18:54:26.406Z,1.83
2022-08-11T18:57:14.963Z,6.83
2022-08-11T19:00:02.554Z,2.60
2022-08-11T19:02:50.454Z,5.43
2022-08-11T19:06:31.895Z,2.00
2022-08-11T19:08:48.230Z,2.10
2022-08-11T19:11:34.231Z,6.63
2022-08-11T19:14:27.186Z,2.87
2022-08-11T19:17:14.110Z,3.53
2022-08-11T19:20:22.613Z,3.17
2022-08-11T19:23:09.188Z,3.97
2022-08-11T19:31:43.826Z,3.63
2022-08-11T19:34:41.016Z,3.40
2022-08-11T19:37:27.740Z,4.63
2022-08-11T19:40:16.224Z,4.37
2022-08-11T19:43:11.114Z,5.40
2022-08-11T19:46:11.403Z,8.60
2022-08-11T19:48:58.505Z,9.80
2022-08-11T19:51:44.077Z,4.23
2022-08-11T19:54:30.409Z,4.00
2022-08-11T19:57:16.826Z,5.50
2022-08-11T20:00:02.786Z,3.23
2022-08-11T20:02:48.215Z,4.10
2022-08-11T20:05:33.749Z,3.50
2022-08-11T20:08:19.017Z,7.20
2022-08-11T20:11:06.086Z,3.80
2022-08-11T20:13:52.615Z,3.47
2022-08-11T20:16:41.108Z,5.93
2022-08-11T20:22:15.066Z,2.80
2022-08-11T20:25:01.623Z,5.50
2022-08-11T20:27:46.918Z,4.03
2022-08-11T20:30:32.825Z,4.13
2022-08-11T20:33:19.003Z,4.03
2022-08-11T20:36:08.030Z,5.73
2022-08-11T20:41:58.203Z,6.23
2022-08-11T20:44:45.971Z,5.13
2022-08-11T20:47:33.881Z,5.13
2022-08-11T20:50:40.610Z,5.77
2022-08-11T20:53:29.248Z,5.33
2022-08-11T20:56:17.106Z,7.33
2022-08-11T20:59:21.680Z,5.37
2022-08-11T21:02:09.413Z,6.43
2022-08-11T21:04:56.639Z,9.93
2022-08-11T21:07:50.268Z,9.07
2022-08-11T21:10:46.778Z,5.20
2022-08-11T21:13:34.293Z,5.57
2022-08-11T21:16:26.569Z,5.93
2022-08-11T21:19:54.998Z,7.67
2022-08-11T21:22:59.169Z,6.37
2022-08-11T21:25:51.709Z,8.77
2022-08-11T21:28:39.691Z,5.57
2022-08-11T21:31:27.011Z,8.47
2022-08-11T21:34:14.495Z,10.87
2022-08-11T21:37:01.568Z,12.70
2022-08-11T21:45:31.444Z,17.63
2022-08-11T21:48:17.810Z,14.73
2022-08-11T21:51:03.219Z,14.07
2022-08-11T21:53:50.665Z,21.13
2022-08-11T22:05:11.297Z,12.70
2022-08-11T22:07:58.401Z,15.70
2022-08-11T22:10:43.815Z,12.50
2022-08-11T22:13:31.263Z,11.80
2022-08-11T22:16:18.282Z,12.17
2022-08-11T22:19:05.689Z,13.33
2022-08-11T22:22:03.025Z,11.17
2022-08-11T22:24:50.004Z,10.70
2022-08-11T22:27:35.319Z,12.67
2022-08-11T22:30:20.784Z,11.70
2022-08-11T22:33:06.151Z,13.83
2022-08-11T22:35:53.143Z,16.03
2022-08-11T22:38:39.012Z,12.93
2022-08-11T22:41:24.302Z,12.90
2022-08-11T22:44:09.879Z,13.80
2022-08-11T22:46:55.610Z,13.37
2022-08-11T22:49:42.606Z,15.50
2022-08-11T22:52:44.491Z,10.10
2022-08-11T22:55:30.312Z,10.20
2022-08-11T22:58:16.294Z,10.07
2022-08-11T23:03:54.359Z,6.83
2022-08-11T23:06:40.678Z,7.83
2022-08-11T23:09:27.119Z,5.37
2022-08-11T23:12:12.507Z,6.27
2022-08-11T23:14:59.984Z,7.33
2022-08-11T23:17:46.444Z,11.83
2022-08-11T23:20:48.674Z,9.53
2022-08-11T23:23:40.047Z,7.43
2022-08-11T23:26:26.032Z,7.57
2022-08-11T23:29:14.642Z,11.03
2022-08-11T23:32:00.436Z,9.97
2022-08-11T23:35:04.021Z,9.13
2022-08-11T23:37:55.811Z,6.43
2022-08-11T23:40:45.200Z,7.30
2022-08-11T23:43:38.540Z,12.40
2022-08-11T23:46:24.108Z,8.17
2022-08-11T23:55:04.117Z,8.57
2022-08-11T23:57:49.601Z,7.67
